Time;durP1;ratioP1;P1;durP2;ratioP2;P2;SDS_P1;SDS_P2;PMS_P1;PMS_P2;Temp;Humidity;BMP_temperature;BMP_pressure;BME280_temperature;BME280_humidity;BME280_pressure;Samples;Min_cycle;Max_cycle;Signal;HPM_P1;HPM_P2
2021/12/26 00:01:16;;;;;;;8.70;5.27;;;-9.50;99.90;;;;;;4992536;28;20023;-85
2021/12/26 00:03:42;;;;;;;7.47;4.17;;;-9.40;99.90;;;;;;4975512;28;20030;-85
2021/12/26 00:06:33;;;;;;;9.40;4.33;;;-9.40;99.90;;;;;;4992763;28;20165;-85
2021/12/26 00:09:07;;;;;;;13.77;4.13;;;-9.40;99.90;;;;;;4976833;28;20063;-85
2021/12/26 00:11:32;;;;;;;6.33;4.77;;;-9.40;99.90;;;;;;4995644;28;20030;-85
2021/12/26 00:13:58;;;;;;;5.70;4.10;;;-9.50;99.90;;;;;;4996160;28;20113;-85
2021/12/26 00:16:24;;;;;;;6.97;3.53;;;-9.50;99.90;;;;;;4996022;28;20374;-85
2021/12/26 00:18:50;;;;;;;6.67;4.20;;;-9.50;99.90;;;;;;4996339;28;20162;-85
2021/12/26 00:21:26;;;;;;;8.43;3.30;;;-9.50;99.90;;;;;;4996110;28;20058;-85
2021/12/26 00:24:17;;;;;;;3.50;3.13;;;-9.40;99.90;;;;;;4996200;28;20470;-85
2021/12/26 00:26:42;;;;;;;7.73;3.80;;;-9.40;99.90;;;;;;4989820;28;20031;-85
2021/12/26 00:29:14;;;;;;;7.80;3.50;;;-9.40;99.90;;;;;;4996026;28;20039;-85
2021/12/26 00:31:39;;;;;;;5.20;3.50;;;-9.40;99.90;;;;;;4995793;28;20054;-85
2021/12/26 00:34:06;;;;;;;7.00;3.23;;;-9.40;99.90;;;;;;4995759;28;20569;-85
2021/12/26 00:36:39;;;;;;;6.60;3.43;;;-9.40;99.90;;;;;;4996109;28;20060;-85
2021/12/26 00:39:06;;;;;;;5.00;3.07;;;-9.50;99.90;;;;;;4978298;28;20038;-85
2021/12/26 00:41:33;;;;;;;4.03;3.43;;;-9.50;99.90;;;;;;4978437;28;20036;-85
2021/12/26 00:43:59;;;;;;;7.53;3.07;;;-9.40;99.90;;;;;;4995775;28;20030;-85
2021/12/26 00:46:24;;;;;;;3.63;3.33;;;-9.40;99.90;;;;;;4995754;28;20081;-85
2021/12/26 00:49:21;;;;;;;3.80;3.20;;;-9.40;99.90;;;;;;4978301;28;20190;-85
2021/12/26 00:51:48;;;;;;;6.23;3.23;;;-9.40;99.90;;;;;;4958931;28;20031;-85
2021/12/26 00:54:14;;;;;;;6.10;3.57;;;-9.50;99.90;;;;;;4958775;28;20102;-84
2021/12/26 00:56:48;;;;;;;2.93;2.67;;;-9.50;99.90;;;;;;4976210;28;20031;-84
2021/12/26 00:59:13;;;;;;;6.50;3.33;;;-9.50;99.90;;;;;;4958716;28;20133;-85
2021/12/26 01:01:42;;;;;;;4.87;3.60;;;-9.60;99.90;;;;;;4975626;28;20093;-84
2021/12/26 01:04:08;;;;;;;4.50;3.80;;;-9.70;99.90;;;;;;4975969;28;20035;-84
2021/12/26 01:06:34;;;;;;;6.33;3.70;;;-9.60;99.90;;;;;;4958698;28;20045;-85
2021/12/26 01:09:23;;;;;;;10.53;4.00;;;-9.60;99.90;;;;;;4958691;28;20027;-85
2021/12/26 01:11:53;;;;;;;8.30;4.17;;;-9.60;99.90;;;;;;4975884;28;20124;-85
2021/12/26 01:14:26;;;;;;;14.77;4.33;;;-9.60;99.90;;;;;;4988392;28;20390;-84
2021/12/26 01:17:03;;;;;;;5.80;4.07;;;-9.50;99.90;;;;;;4994999;28;20029;-84
2021/12/26 01:19:36;;;;;;;8.00;4.80;;;-9.50;99.90;;;;;;4995181;28;20066;-85
2021/12/26 01:22:19;;;;;;;8.97;4.73;;;-9.50;99.90;;;;;;4994434;28;20474;-86
2021/12/26 01:24:48;;;;;;;6.70;4.27;;;-9.40;99.90;;;;;;4977681;28;20533;-86
2021/12/26 01:27:31;;;;;;;7.47;4.17;;;-9.40;99.90;;;;;;4994805;28;20030;-85
2021/12/26 01:29:57;;;;;;;6.47;4.10;;;-9.40;99.90;;;;;;4976922;28;20033;-85
2021/12/26 01:32:32;;;;;;;4.90;4.03;;;-9.40;99.90;;;;;;4977489;28;20026;-85
2021/12/26 01:35:01;;;;;;;5.13;4.03;;;-9.50;99.90;;;;;;4976870;28;20070;-85
2021/12/26 01:37:26;;;;;;;6.67;3.70;;;-9.50;99.90;;;;;;4977281;28;20034;-85
2021/12/26 01:39:56;;;;;;;7.33;4.40;;;-9.50;99.90;;;;;;4994672;28;20438;-85
2021/12/26 01:42:22;;;;;;;3.60;3.30;;;-9.50;99.90;;;;;;4976861;28;20058;-84
2021/12/26 01:44:49;;;;;;;4.17;3.67;;;-9.40;99.90;;;;;;4994439;28;20042;-85
2021/12/26 01:47:15;;;;;;;6.33;3.70;;;-9.40;99.90;;;;;;4994738;28;20027;-85
2021/12/26 01:49:40;;;;;;;4.53;3.33;;;-9.30;99.90;;;;;;4994445;28;20023;-84
2021/12/26 01:52:07;;;;;;;11.13;3.47;;;-9.30;99.90;;;;;;4994568;28;20030;-85
2021/12/26 01:54:46;;;;;;;5.13;4.13;;;-9.30;99.90;;;;;;4994679;28;20028;-86
2021/12/26 01:57:25;;;;;;;5.30;3.50;;;-9.30;99.90;;;;;;4989927;28;20030;-86
2021/12/26 01:59:51;;;;;;;6.40;3.90;;;-9.30;99.90;;;;;;4976623;28;20089;-86
2021/12/26 02:02:18;;;;;;;7.27;4.07;;;-9.30;99.90;;;;;;4994263;28;20054;-86
2021/12/26 02:04:44;;;;;;;8.07;4.10;;;-9.30;99.90;;;;;;4994379;28;20657;-85
2021/12/26 02:07:12;;;;;;;8.90;3.93;;;-9.20;99.90;;;;;;4994374;28;20054;-86
2021/12/26 02:09:51;;;;;;;9.40;4.17;;;-9.20;99.90;;;;;;4994241;28;20021;-86
2021/12/26 02:12:16;;;;;;;8.13;4.17;;;-9.20;99.90;;;;;;4994210;28;20041;-85
2021/12/26 02:14:42;;;;;;;5.00;4.07;;;-9.20;99.90;;;;;;4976579;28;20027;-85
2021/12/26 02:17:17;;;;;;;8.50;5.20;;;-9.30;99.90;;;;;;4994022;28;20018;-85
2021/12/26 02:19:43;;;;;;;5.57;4.15;;;-9.30;99.90;;;;;;4994120;28;20378;-84
2021/12/26 02:22:13;;;;;;;8.00;4.50;;;-9.30;99.90;;;;;;4993656;28;20033;-84
2021/12/26 02:25:14;;;;;;;6.13;4.03;;;-9.30;99.90;;;;;;4993850;28;20014;-85
2021/12/26 02:27:42;;;;;;;7.20;4.43;;;-9.30;99.90;;;;;;4993914;28;20034;-85
2021/12/26 02:30:16;;;;;;;6.27;3.87;;;-9.30;99.90;;;;;;4993507;28;20106;-86
2021/12/26 02:32:47;;;;;;;6.03;4.60;;;-9.30;99.90;;;;;;4993118;28;20026;-86
2021/12/26 02:35:22;;;;;;;9.70;4.77;;;-9.20;99.90;;;;;;4993609;28;20066;-86
2021/12/26 02:37:48;;;;;;;14.57;4.93;;;-9.30;99.90;;;;;;4993801;28;20030;-86
2021/12/26 02:40:16;;;;;;;11.50;5.10;;;-9.30;99.90;;;;;;4993641;28;20035;-86
2021/12/26 02:42:43;;;;;;;6.83;4.60;;;-9.30;99.90;;;;;;4993636;28;20026;-86
2021/12/26 02:45:08;;;;;;;8.43;4.83;;;-9.40;99.90;;;;;;4993351;28;20023;-85
2021/12/26 02:47:48;;;;;;;9.77;5.67;;;-9.40;99.90;;;;;;4993500;28;20478;-85
2021/12/26 02:50:20;;;;;;;9.30;5.03;;;-9.50;99.90;;;;;;4962820;28;20034;-85
2021/12/26 02:52:46;;;;;;;11.90;5.90;;;-9.50;99.90;;;;;;4993402;28;20026;-86
2021/12/26 02:55:28;;;;;;;9.33;5.43;;;-9.50;99.90;;;;;;4976086;28;20501;-85
2021/12/26 02:57:59;;;;;;;14.07;5.27;;;-9.60;99.90;;;;;;4993388;28;20379;-86
2021/12/26 03:00:51;;;;;;;11.93;5.63;;;-9.60;99.90;;;;;;4993074;28;20058;-85
2021/12/26 03:03:16;;;;;;;10.07;5.07;;;-9.60;99.90;;;;;;4993106;28;20081;-85
2021/12/26 03:06:55;;;;;;;11.57;6.07;;;-9.70;99.90;;;;;;4993403;28;20027;-85
2021/12/26 03:09:07;;;;;;;14.47;5.97;;;-9.70;99.90;;;;;;4985329;28;20097;-86
2021/12/26 03:11:33;;;;;;;12.07;6.20;;;-9.80;99.90;;;;;;4993129;28;20090;-85
2021/12/26 03:14:26;;;;;;;12.27;6.53;;;-9.80;99.90;;;;;;4975727;28;20023;-85
2021/12/26 03:16:53;;;;;;;11.33;6.93;;;-9.80;99.90;;;;;;4975726;28;20027;-85
2021/12/26 03:19:18;;;;;;;14.07;6.30;;;-9.80;99.90;;;;;;4975864;28;20037;-86
2021/12/26 03:21:48;;;;;;;9.73;6.13;;;-9.80;99.90;;;;;;4993061;28;20479;-86
2021/12/26 03:24:14;;;;;;;9.67;6.60;;;-9.80;99.90;;;;;;4975303;28;20077;-85
2021/12/26 03:27:13;;;;;;;15.33;7.23;;;-9.90;99.90;;;;;;4975968;28;20026;-85
2021/12/26 03:29:39;;;;;;;10.67;5.63;;;-9.90;99.90;;;;;;4914016;29;20043;-86
2021/12/26 03:32:19;;;;;;;12.67;6.47;;;-9.90;99.90;;;;;;4924822;28;20028;-85
2021/12/26 03:35:34;;;;;;;17.00;6.70;;;-9.80;99.90;;;;;;4975620;28;20055;-85
2021/12/26 03:38:02;;;;;;;6.63;5.43;;;-9.90;99.90;;;;;;4993108;28;20030;-85
2021/12/26 03:40:27;;;;;;;19.10;7.37;;;-9.90;99.90;;;;;;4975722;28;20032;-86
2021/12/26 03:43:05;;;;;;;12.30;5.90;;;-9.90;99.90;;;;;;4975438;28;20030;-86
2021/12/26 03:45:31;;;;;;;12.10;6.27;;;-9.90;99.90;;;;;;4996080;28;20026;-85
2021/12/26 03:47:59;;;;;;;8.90;6.03;;;-9.90;99.90;;;;;;4996837;28;20035;-85
2021/12/26 03:50:27;;;;;;;14.00;7.00;;;-9.90;99.90;;;;;;4996885;28;20022;-86
2021/12/26 03:52:56;;;;;;;14.40;7.67;;;-9.80;99.90;;;;;;4996654;28;20390;-85
2021/12/26 03:55:25;;;;;;;8.73;6.43;;;-9.90;99.90;;;;;;4996937;28;20510;-86
2021/12/26 03:57:51;;;;;;;14.00;7.20;;;-9.90;99.90;;;;;;4996614;28;20035;-84
2021/12/26 04:00:19;;;;;;;12.50;7.43;;;-9.90;99.90;;;;;;4996321;28;20034;-85
2021/12/26 04:02:45;;;;;;;17.27;7.80;;;-9.90;99.90;;;;;;4996552;28;20378;-85
2021/12/26 04:05:16;;;;;;;20.50;7.37;;;-10.00;99.90;;;;;;4996524;28;20348;-85
2021/12/26 04:07:42;;;;;;;21.20;8.10;;;-10.00;99.90;;;;;;4996587;28;20462;-85
2021/12/26 04:10:09;;;;;;;15.40;7.93;;;-10.00;99.90;;;;;;4996418;28;20039;-85
2021/12/26 04:12:37;;;;;;;12.83;7.23;;;-10.00;99.90;;;;;;4996477;28;20030;-85
2021/12/26 04:15:09;;;;;;;14.33;6.83;;;-10.10;99.90;;;;;;4996195;28;20033;-86
2021/12/26 04:17:35;;;;;;;12.63;6.93;;;-10.10;99.90;;;;;;4996204;28;20046;-86
2021/12/26 04:20:06;;;;;;;13.67;7.80;;;-10.10;99.90;;;;;;4978900;28;20034;-86
2021/12/26 04:22:31;;;;;;;12.57;7.40;;;-10.10;99.90;;;;;;4995775;28;20031;-85
2021/12/26 04:24:57;;;;;;;11.83;7.53;;;-10.00;99.90;;;;;;4996050;28;20085;-86
2021/12/26 04:27:28;;;;;;;15.83;8.50;;;-9.90;99.90;;;;;;4996329;28;20160;-86
2021/12/26 04:29:54;;;;;;;11.80;7.27;;;-10.00;99.90;;;;;;4995494;28;20027;-86
2021/12/26 04:32:39;;;;;;;10.40;6.47;;;-10.10;99.90;;;;;;4995432;28;20058;-84
2021/12/26 04:35:13;;;;;;;14.07;6.60;;;-10.10;99.90;;;;;;4995849;28;20034;-85
2021/12/26 04:37:38;;;;;;;16.20;6.97;;;-10.10;99.90;;;;;;4978518;28;20478;-85
2021/12/26 04:40:07;;;;;;;15.67;8.30;;;-10.20;99.90;;;;;;4996223;28;20085;-85
2021/12/26 04:42:50;;;;;;;10.57;7.00;;;-10.20;99.90;;;;;;4995663;28;20030;-85
2021/12/26 04:45:16;;;;;;;15.43;7.80;;;-10.20;99.90;;;;;;4995255;28;20015;-85
2021/12/26 04:47:43;;;;;;;19.97;7.80;;;-10.30;99.90;;;;;;4995930;28;20045;-85
2021/12/26 04:50:14;;;;;;;12.90;8.10;;;-10.20;99.90;;;;;;4991394;28;20034;-85
2021/12/26 04:52:42;;;;;;;13.30;7.93;;;-10.20;99.90;;;;;;4995601;28;20030;-85
2021/12/26 04:55:12;;;;;;;15.27;8.07;;;-10.30;99.90;;;;;;4995098;28;20029;-85
2021/12/26 04:57:37;;;;;;;17.00;7.50;;;-10.30;99.90;;;;;;4995137;28;20022;-85
2021/12/26 05:00:08;;;;;;;14.67;8.07;;;-10.30;99.90;;;;;;4977681;28;20034;-85
2021/12/26 05:02:36;;;;;;;12.07;7.17;;;-10.30;99.90;;;;;;4977736;28;20030;-85
2021/12/26 05:05:12;;;;;;;11.77;6.90;;;-10.40;99.90;;;;;;4975944;28;20023;-86
2021/12/26 05:07:40;;;;;;;18.57;7.33;;;-10.40;99.90;;;;;;4969457;28;20018;-85
2021/12/26 05:10:08;;;;;;;18.10;8.57;;;-10.40;99.90;;;;;;4995334;28;20026;-85
2021/12/26 05:12:46;;;;;;;22.77;9.23;;;-10.50;99.90;;;;;;4977691;28;20034;-85
2021/12/26 05:15:13;;;;;;;12.40;7.57;;;-10.50;99.90;;;;;;4976700;28;20034;-85
2021/12/26 05:17:43;;;;;;;15.43;8.00;;;-10.60;99.90;;;;;;4995237;28;20095;-85
2021/12/26 05:20:10;;;;;;;13.90;7.87;;;-10.70;99.90;;;;;;4977662;28;20419;-85
2021/12/26 05:22:36;;;;;;;13.93;7.47;;;-10.70;99.90;;;;;;4994896;28;20062;-85
2021/12/26 05:25:14;;;;;;;16.53;7.20;;;-10.70;99.90;;;;;;4994834;28;20059;-85
2021/12/26 05:27:40;;;;;;;12.27;6.87;;;-10.60;99.90;;;;;;4995098;28;20070;-84
2021/12/26 05:30:11;;;;;;;7.97;5.57;;;-10.70;99.90;;;;;;4994752;28;20435;-85
2021/12/26 05:32:38;;;;;;;19.83;7.10;;;-10.70;99.90;;;;;;4977481;28;20486;-84
2021/12/26 05:35:04;;;;;;;13.90;6.27;;;-10.80;99.90;;;;;;4977161;28;20050;-86
2021/12/26 05:37:30;;;;;;;13.00;6.83;;;-10.80;99.90;;;;;;4995111;28;20037;-86
2021/12/26 05:39:56;;;;;;;12.97;6.50;;;-10.90;99.90;;;;;;4994676;28;20022;-85
2021/12/26 05:42:24;;;;;;;18.23;8.00;;;-10.80;99.90;;;;;;4977188;28;20450;-85
2021/12/26 05:44:50;;;;;;;13.10;7.40;;;-10.80;99.90;;;;;;4994458;28;20041;-85
2021/12/26 05:47:16;;;;;;;8.87;6.30;;;-10.90;99.90;;;;;;4994762;28;20454;-85
2021/12/26 05:49:47;;;;;;;11.13;6.97;;;-11.00;99.90;;;;;;4994830;28;20030;-86
2021/12/26 05:52:14;;;;;;;12.37;7.17;;;-11.00;99.90;;;;;;4994411;28;20573;-86
2021/12/26 05:54:50;;;;;;;10.27;6.03;;;-11.00;99.90;;;;;;4977147;28;20033;-86
2021/12/26 05:57:17;;;;;;;12.07;7.20;;;-11.00;99.90;;;;;;4994209;28;20558;-86
2021/12/26 05:59:43;;;;;;;13.20;6.53;;;-11.00;99.90;;;;;;4976648;28;20030;-86
2021/12/26 06:02:11;;;;;;;9.37;6.70;;;-11.00;99.90;;;;;;4976869;28;20430;-86
2021/12/26 06:04:37;;;;;;;11.70;7.03;;;-10.90;99.90;;;;;;4994390;28;20438;-87
2021/12/26 06:07:15;;;;;;;10.33;6.50;;;-10.90;99.90;;;;;;4994389;28;20057;-87
2021/12/26 06:09:42;;;;;;;12.80;6.20;;;-10.90;99.90;;;;;;4994224;28;20026;-86
2021/12/26 06:12:08;;;;;;;11.87;6.47;;;-10.90;99.90;;;;;;4993640;28;20027;-86
2021/12/26 06:14:40;;;;;;;12.57;6.33;;;-10.90;99.90;;;;;;4993793;28;20069;-86
2021/12/26 06:17:05;;;;;;;10.80;6.33;;;-10.80;99.90;;;;;;4976876;28;20092;-86
2021/12/26 06:19:39;;;;;;;8.27;5.57;;;-10.90;99.90;;;;;;4976734;28;20026;-86
2021/12/26 06:22:06;;;;;;;13.40;6.13;;;-10.90;99.90;;;;;;4960309;28;20038;-86
2021/12/26 06:24:34;;;;;;;11.13;6.53;;;-10.90;99.90;;;;;;4974539;28;20026;-86
2021/12/26 06:26:59;;;;;;;17.00;6.80;;;-10.90;99.90;;;;;;4974423;28;20042;-85
2021/12/26 06:29:31;;;;;;;9.87;6.10;;;-10.90;99.90;;;;;;4975833;28;20023;-85
2021/12/26 06:31:57;;;;;;;12.13;6.37;;;-10.90;99.90;;;;;;4993761;28;20026;-85
2021/12/26 06:34:22;;;;;;;15.27;5.70;;;-11.00;99.90;;;;;;4993575;28;20458;-85
2021/12/26 06:36:54;;;;;;;15.40;5.70;;;-11.00;99.90;;;;;;4993032;28;20026;-84
2021/12/26 06:39:20;;;;;;;18.57;7.17;;;-11.00;99.90;;;;;;4993361;28;20030;-84
2021/12/26 06:41:45;;;;;;;14.10;6.77;;;-11.00;99.90;;;;;;4993326;28;20065;-85
2021/12/26 06:44:23;;;;;;;15.37;6.60;;;-11.00;99.90;;;;;;4993182;28;20034;-84
2021/12/26 06:46:49;;;;;;;13.00;6.13;;;-11.10;99.90;;;;;;4993410;28;20035;-84
2021/12/26 06:49:18;;;;;;;16.37;7.27;;;-11.10;99.90;;;;;;4976069;28;20088;-84
2021/12/26 06:51:45;;;;;;;12.27;7.90;;;-11.10;99.90;;;;;;4976010;28;20036;-84
2021/12/26 06:54:44;;;;;;;23.63;8.63;;;-11.10;99.90;;;;;;4993419;28;20026;-84
2021/12/26 06:57:09;;;;;;;16.00;8.77;;;-11.20;99.90;;;;;;4993475;28;20438;-85
2021/12/26 06:59:46;;;;;;;20.83;8.63;;;-11.20;99.90;;;;;;4975039;28;20031;-83
2021/12/26 07:02:12;;;;;;;22.70;9.33;;;-11.20;99.90;;;;;;4969304;28;20117;-84
2021/12/26 07:04:37;;;;;;;23.50;10.40;;;-11.20;99.90;;;;;;4973423;28;20110;-84
2021/12/26 07:07:03;;;;;;;20.13;9.87;;;-11.20;99.90;;;;;;4977565;28;20030;-83
2021/12/26 07:09:30;;;;;;;22.83;9.07;;;-11.20;99.90;;;;;;4993077;28;20034;-84
2021/12/26 07:11:56;;;;;;;19.17;10.93;;;-11.30;99.90;;;;;;4992778;28;20042;-84
2021/12/26 07:14:23;;;;;;;21.57;10.37;;;-11.40;99.90;;;;;;4992734;28;20034;-83
2021/12/26 07:16:49;;;;;;;23.43;11.90;;;-11.40;99.90;;;;;;4993069;28;20034;-84
2021/12/26 07:19:14;;;;;;;18.87;9.87;;;-11.40;99.90;;;;;;4995838;28;20045;-84
2021/12/26 07:21:44;;;;;;;14.70;8.70;;;-11.40;99.90;;;;;;4999521;28;20398;-83
2021/12/26 07:24:10;;;;;;;19.87;9.57;;;-11.40;99.90;;;;;;4999845;28;20030;-84
2021/12/26 07:26:35;;;;;;;14.77;7.97;;;-11.30;99.90;;;;;;4999186;28;20052;-78
2021/12/26 07:29:01;;;;;;;17.63;9.27;;;-11.40;99.90;;;;;;5016288;28;20033;-78
2021/12/26 07:31:28;;;;;;;10.47;7.07;;;-11.30;99.90;;;;;;4998862;28;20348;-79
2021/12/26 07:33:55;;;;;;;13.30;7.17;;;-11.30;99.90;;;;;;4998816;28;20406;-78
2021/12/26 07:36:21;;;;;;;21.00;8.57;;;-11.30;99.90;;;;;;4997616;28;20057;-78
2021/12/26 07:38:46;;;;;;;14.60;8.20;;;-11.30;99.90;;;;;;4980763;28;20065;-78
2021/12/26 07:41:14;;;;;;;15.63;8.03;;;-11.30;99.90;;;;;;4990920;28;20041;-79
2021/12/26 07:43:40;;;;;;;15.10;7.80;;;-11.30;99.90;;;;;;4962040;28;20030;-79
2021/12/26 07:46:05;;;;;;;20.53;8.87;;;-11.20;99.90;;;;;;4981094;28;20102;-78
2021/12/26 07:48:31;;;;;;;17.83;8.00;;;-11.20;99.90;;;;;;5018863;28;20057;-78
2021/12/26 07:50:56;;;;;;;16.60;8.30;;;-11.20;99.90;;;;;;4982859;28;20026;-78
2021/12/26 07:53:22;;;;;;;14.67;8.37;;;-11.00;99.90;;;;;;4999251;28;20501;-79
2021/12/26 07:55:48;;;;;;;15.53;8.77;;;-11.10;99.90;;;;;;4981926;28;20081;-78
2021/12/26 07:58:15;;;;;;;18.30;9.27;;;-11.10;99.90;;;;;;4998629;28;20077;-78
2021/12/26 08:00:42;;;;;;;19.83;10.27;;;-11.10;99.90;;;;;;4999375;28;20033;-79
2021/12/26 08:03:08;;;;;;;21.87;10.60;;;-11.10;99.90;;;;;;4999131;28;20033;-79
2021/12/26 08:05:35;;;;;;;15.43;8.87;;;-11.00;99.90;;;;;;4999112;28;20466;-79
2021/12/26 08:08:00;;;;;;;17.47;9.30;;;-11.00;99.90;;;;;;4999188;28;20030;-79
2021/12/26 08:10:26;;;;;;;13.47;8.03;;;-10.90;99.90;;;;;;5003270;28;20482;-79
2021/12/26 08:12:51;;;;;;;18.60;9.27;;;-10.90;99.90;;;;;;4998455;28;20026;-78
2021/12/26 08:15:17;;;;;;;19.23;11.63;;;-10.90;99.90;;;;;;4998934;28;20029;-79
2021/12/26 08:17:43;;;;;;;24.47;12.10;;;-10.90;99.90;;;;;;4998732;28;20108;-78
2021/12/26 08:20:10;;;;;;;22.90;11.47;;;-10.90;99.90;;;;;;4998286;28;20455;-79
2021/12/26 08:22:35;;;;;;;16.97;9.40;;;-10.90;99.90;;;;;;4998428;28;20034;-78
2021/12/26 08:25:03;;;;;;;20.23;9.90;;;-10.90;99.90;;;;;;4998721;28;20065;-79
2021/12/26 08:27:29;;;;;;;18.57;9.53;;;-10.80;99.90;;;;;;4998774;28;20024;-78
2021/12/26 08:29:56;;;;;;;21.87;9.83;;;-10.80;99.90;;;;;;4997358;28;20030;-79
2021/12/26 08:32:21;;;;;;;35.70;13.17;;;-10.70;99.90;;;;;;4994371;28;20359;-79
2021/12/26 08:34:47;;;;;;;31.73;12.23;;;-10.70;99.90;;;;;;4995969;28;20042;-78
2021/12/26 08:37:13;;;;;;;17.20;9.53;;;-10.60;99.90;;;;;;4995773;28;20058;-79
2021/12/26 08:39:41;;;;;;;21.03;9.80;;;-10.60;99.90;;;;;;4996082;28;20038;-78
2021/12/26 08:42:09;;;;;;;29.27;13.77;;;-10.50;99.90;;;;;;5005221;28;20029;-79
2021/12/26 08:44:43;;;;;;;38.70;17.30;;;-10.40;99.90;;;;;;4994623;28;20042;-79
2021/12/26 08:47:10;;;;;;;37.83;18.38;;;-10.40;99.90;;;;;;4965284;28;20044;-79
2021/12/26 08:49:37;;;;;;;31.30;17.70;;;-10.30;99.90;;;;;;4995038;28;20057;-79
2021/12/26 08:52:03;;;;;;;41.47;18.97;;;-10.30;99.90;;;;;;4977351;28;20443;-79
2021/12/26 08:54:30;;;;;;;34.00;18.23;;;-10.20;99.90;;;;;;4995583;28;20037;-79
2021/12/26 08:56:56;;;;;;;31.10;15.13;;;-10.10;99.90;;;;;;4986089;28;20474;-78
2021/12/26 08:59:24;;;;;;;26.50;12.23;;;-10.00;99.90;;;;;;4995211;28;20037;-78
2021/12/26 09:01:50;;;;;;;23.23;11.60;;;-10.00;99.90;;;;;;4978159;28;20030;-79
2021/12/26 09:04:16;;;;;;;23.87;11.43;;;-9.90;99.90;;;;;;4995116;28;20037;-78
2021/12/26 09:06:41;;;;;;;27.00;12.43;;;-9.80;99.90;;;;;;4995471;28;20407;-79
2021/12/26 09:09:08;;;;;;;27.47;13.23;;;-9.80;99.90;;;;;;4977770;28;20153;-79
2021/12/26 09:11:34;;;;;;;27.17;13.23;;;-9.70;99.90;;;;;;4995268;28;20518;-78
2021/12/26 09:14:01;;;;;;;26.77;13.33;;;-9.60;99.90;;;;;;4994936;28;20023;-78
2021/12/26 09:16:33;;;;;;;24.37;11.37;;;-9.60;99.90;;;;;;4995238;28;20471;-78
2021/12/26 09:19:01;;;;;;;22.67;13.33;;;-9.50;99.90;;;;;;4977845;28;20081;-78
2021/12/26 09:21:27;;;;;;;37.03;12.50;;;-9.50;99.90;;;;;;4994803;28;20470;-78
2021/12/26 09:23:55;;;;;;;26.47;12.33;;;-9.50;99.90;;;;;;4994893;28;20176;-78
2021/12/26 09:26:21;;;;;;;25.93;12.73;;;-9.40;99.90;;;;;;4995039;28;20057;-78
2021/12/26 09:28:48;;;;;;;26.37;13.77;;;-9.40;99.90;;;;;;4994085;28;20083;-78
2021/12/26 09:31:14;;;;;;;27.80;14.10;;;-9.30;99.90;;;;;;4977184;28;20438;-78
2021/12/26 09:33:39;;;;;;;31.40;15.57;;;-9.20;99.90;;;;;;4994443;28;20038;-78
2021/12/26 09:36:05;;;;;;;31.37;16.23;;;-9.20;99.90;;;;;;4976996;28;20049;-78
2021/12/26 09:38:31;;;;;;;32.70;16.13;;;-9.10;99.90;;;;;;4994907;28;20030;-78
2021/12/26 09:40:57;;;;;;;32.23;16.67;;;-9.00;99.90;;;;;;4994698;28;20386;-78
2021/12/26 09:43:23;;;;;;;36.13;17.37;;;-8.90;99.90;;;;;;4975675;28;20037;-78
2021/12/26 09:45:49;;;;;;;33.23;18.23;;;-8.80;99.90;;;;;;4994711;28;20098;-78
2021/12/26 09:48:15;;;;;;;34.57;19.10;;;-8.70;99.90;;;;;;4993963;28;20130;-78
2021/12/26 09:50:40;;;;;;;41.20;21.77;;;-8.70;99.90;;;;;;4994313;28;20031;-78
2021/12/26 09:53:06;;;;;;;51.70;22.17;;;-8.60;99.90;;;;;;4994578;28;20054;-78
2021/12/26 09:55:32;;;;;;;40.33;20.73;;;-8.50;99.90;;;;;;4994584;28;20066;-78
2021/12/26 09:57:58;;;;;;;43.43;22.07;;;-8.40;99.90;;;;;;4993403;28;20062;-78
2021/12/26 10:00:33;;;;;;;46.13;23.10;;;-8.30;99.90;;;;;;4994072;28;20030;-78
2021/12/26 10:03:22;;;;;;;39.85;21.15;;;-8.30;99.90;;;;;;4994152;28;20550;-78
2021/12/26 10:06:13;;;;;;;39.67;20.30;;;-8.20;99.90;;;;;;4993695;28;20069;-78
2021/12/26 10:08:52;;;;;;;34.53;18.63;;;-8.20;99.90;;;;;;4976973;28;20057;-78
2021/12/26 10:11:20;;;;;;;34.70;18.23;;;-8.10;99.90;;;;;;4994063;28;20109;-79
2021/12/26 10:13:49;;;;;;;38.50;19.03;;;-8.00;99.90;;;;;;4993300;28;20084;-78
2021/12/26 10:16:16;;;;;;;41.03;18.47;;;-7.90;99.90;;;;;;4976476;28;20026;-78
2021/12/26 10:18:43;;;;;;;35.30;17.90;;;-7.80;99.90;;;;;;4994152;28;20546;-78
2021/12/26 10:21:47;;;;;;;39.00;17.03;;;-7.70;99.90;;;;;;4993300;28;20026;-79
2021/12/26 10:24:31;;;;;;;34.03;15.93;;;-7.70;99.90;;;;;;4943750;28;20507;-79
2021/12/26 10:26:58;;;;;;;35.87;17.33;;;-7.60;99.90;;;;;;4970389;28;20106;-78
2021/12/26 10:29:35;;;;;;;30.70;15.13;;;-7.60;99.90;;;;;;4993387;28;20081;-78
2021/12/26 10:32:12;;;;;;;34.00;15.37;;;-7.70;99.90;;;;;;4993707;28;20026;-78
2021/12/26 10:34:41;;;;;;;28.63;15.80;;;-7.60;99.90;;;;;;4993770;28;20042;-79
2021/12/26 10:37:10;;;;;;;35.43;16.40;;;-7.60;99.90;;;;;;4991872;28;20030;-78
2021/12/26 10:39:45;;;;;;;40.33;17.23;;;-7.60;99.90;;;;;;4973938;28;20029;-79
2021/12/26 10:42:16;;;;;;;36.97;17.60;;;-7.60;99.90;;;;;;4992048;28;20169;-78
2021/12/26 10:44:47;;;;;;;32.50;17.27;;;-7.50;99.90;;;;;;4975853;28;20038;-78
2021/12/26 10:47:16;;;;;;;36.20;17.73;;;-7.50;99.90;;;;;;4975947;28;20030;-79
2021/12/26 10:50:06;;;;;;;37.77;16.93;;;-7.50;99.90;;;;;;4976079;28;20014;-78
2021/12/26 10:52:58;;;;;;;37.53;17.13;;;-7.40;99.90;;;;;;4992972;28;20113;-79
2021/12/26 10:55:28;;;;;;;39.87;18.07;;;-7.40;99.90;;;;;;4967269;28;20509;-78
2021/12/26 10:57:54;;;;;;;49.87;22.77;;;-7.40;99.90;;;;;;4992960;28;20034;-79
2021/12/26 11:00:24;;;;;;;63.33;23.47;;;-7.40;99.90;;;;;;4993104;28;20562;-78
2021/12/26 11:03:04;;;;;;;43.13;21.57;;;-7.40;99.90;;;;;;4993162;28;20026;-79
2021/12/26 11:05:38;;;;;;;45.77;20.30;;;-7.30;99.90;;;;;;4993424;28;20027;-79
2021/12/26 11:08:06;;;;;;;59.60;26.83;;;-7.30;99.90;;;;;;4975763;28;20026;-79
2021/12/26 11:10:36;;;;;;;61.73;28.03;;;-7.30;99.90;;;;;;4998984;28;20017;-79
2021/12/26 11:13:05;;;;;;;54.47;25.67;;;-7.20;99.90;;;;;;4994913;28;20121;-79
2021/12/26 11:15:35;;;;;;;50.23;23.03;;;-7.20;99.90;;;;;;4982824;28;20483;-79
2021/12/26 11:18:03;;;;;;;49.47;23.07;;;-7.20;99.90;;;;;;4994076;28;20038;-79
2021/12/26 11:20:45;;;;;;;51.40;22.30;;;-7.10;99.90;;;;;;4992549;28;20034;-78
2021/12/26 11:23:23;;;;;;;42.47;19.70;;;-7.10;99.90;;;;;;4957931;28;20042;-79
2021/12/26 11:25:58;;;;;;;45.27;21.87;;;-7.00;99.90;;;;;;4992668;28;20026;-79
2021/12/26 11:28:28;;;;;;;47.87;22.97;;;-6.90;99.90;;;;;;4975370;28;20049;-79
2021/12/26 11:31:03;;;;;;;49.23;23.53;;;-6.90;99.90;;;;;;4992820;28;20044;-79
2021/12/26 11:33:29;;;;;;;45.93;22.10;;;-6.90;99.90;;;;;;5011219;28;20615;-79
2021/12/26 11:35:57;;;;;;;44.57;21.60;;;-6.80;99.90;;;;;;5000239;28;20073;-79
2021/12/26 11:38:25;;;;;;;41.70;20.07;;;-6.70;99.90;;;;;;4974505;28;20026;-79
2021/12/26 11:40:58;;;;;;;36.23;18.43;;;-6.70;99.90;;;;;;4992650;28;20034;-79
2021/12/26 11:43:52;;;;;;;43.47;20.73;;;-6.60;99.90;;;;;;4991730;28;20038;-79
2021/12/26 11:50:20;;;;;;;44.67;21.43;;;-6.60;99.90;;;;;;4989097;28;20029;-79
2021/12/26 11:53:22;;;;;;;35.80;19.02;;;-6.50;99.90;;;;;;4909557;28;20049;-79
2021/12/26 11:55:47;;;;;;;42.73;20.60;;;-6.50;99.90;;;;;;4973376;28;20023;-79
2021/12/26 11:58:41;;;;;;;45.77;22.63;;;-6.40;99.90;;;;;;4989850;28;20039;-79
2021/12/26 12:01:13;;;;;;;42.37;18.63;;;-6.40;99.90;;;;;;4992521;28;20077;-79
2021/12/26 12:03:39;;;;;;;52.10;24.77;;;-6.40;99.90;;;;;;4992603;28;20049;-79
2021/12/26 12:06:04;;;;;;;48.47;23.70;;;-6.30;99.90;;;;;;4977529;28;20027;-79
2021/12/26 12:08:33;;;;;;;44.13;23.03;;;-6.30;99.90;;;;;;4996120;28;20030;-79
2021/12/26 12:11:07;;;;;;;47.07;23.47;;;-6.30;99.90;;;;;;4996544;28;20560;-79
2021/12/26 12:13:39;;;;;;;50.95;23.60;;;-6.30;99.90;;;;;;4985737;28;20058;-79
2021/12/26 12:16:09;;;;;;;51.88;23.80;;;-6.20;99.90;;;;;;4995444;28;20027;-79
2021/12/26 12:18:38;;;;;;;47.53;23.75;;;-6.20;99.90;;;;;;4984233;28;20487;-79
2021/12/26 12:21:28;;;;;;;49.22;24.73;;;-6.20;99.90;;;;;;4996214;28;20378;-78
2021/12/26 12:24:05;;;;;;;53.63;26.77;;;-6.20;99.90;;;;;;4995893;28;20118;-78
2021/12/26 12:26:53;;;;;;;54.05;25.70;;;-6.20;99.90;;;;;;4995372;28;20050;-78
2021/12/26 12:29:21;;;;;;;65.05;28.20;;;-6.20;99.90;;;;;;4995680;28;20098;-78
2021/12/26 12:31:48;;;;;;;55.37;26.50;;;-6.10;99.90;;;;;;4978334;28;20430;-78
2021/12/26 12:34:16;;;;;;;61.87;27.30;;;-6.10;99.90;;;;;;4995441;28;20378;-79
2021/12/26 12:36:44;;;;;;;63.08;30.73;;;-6.00;99.90;;;;;;4995659;28;20566;-79
2021/12/26 12:39:17;;;;;;;65.50;29.33;;;-5.90;99.90;;;;;;4978235;28;20026;-78
2021/12/26 12:41:51;;;;;;;68.13;30.50;;;-5.90;99.90;;;;;;4994899;28;20029;-79
2021/12/26 12:44:33;;;;;;;66.03;29.58;;;-5.80;99.90;;;;;;4977983;28;20046;-78
2021/12/26 12:47:08;;;;;;;71.78;31.80;;;-5.80;99.90;;;;;;4995291;28;20026;-78
2021/12/26 12:49:52;;;;;;;;;;;-5.70;99.90;;;;;;4995644;28;20526;-79
2021/12/26 12:52:41;;;;;;;68.25;31.50;;;-5.60;99.90;;;;;;4995243;28;19996;-79
2021/12/26 12:55:22;;;;;;;67.90;32.67;;;-5.60;99.90;;;;;;4987200;28;20030;-79